createdAt,value
2022-09-02T00:01:38.315Z,89.90
2022-09-02T00:04:16.009Z,90.00
2022-09-02T00:06:44.196Z,90.50
2022-09-02T00:09:15.502Z,90.50
2022-09-02T00:11:44.622Z,90.40
2022-09-02T00:14:15.653Z,90.40
2022-09-02T00:16:51.457Z,90.10
2022-09-02T00:19:24.156Z,89.80
2022-09-02T00:21:52.152Z,89.70
2022-09-02T00:24:19.019Z,89.80
2022-09-02T00:26:46.187Z,90.20
2022-09-02T00:29:14.599Z,90.50
2022-09-02T00:31:42.851Z,90.60
2022-09-02T00:34:10.717Z,90.50
2022-09-02T00:36:37.565Z,90.60
2022-09-02T00:39:07.557Z,90.70
2022-09-02T00:41:35.354Z,90.60
2022-09-02T00:44:06.493Z,90.50
2022-09-02T00:46:34.126Z,90.60
2022-09-02T00:49:11.938Z,90.50
2022-09-02T00:51:54.573Z,90.30
2022-09-02T00:54:24.062Z,90.30
2022-09-02T00:56:55.589Z,90.20
2022-09-02T00:59:41.352Z,90.30
2022-09-02T01:02:09.658Z,89.90
2022-09-02T01:04:37.141Z,89.60
2022-09-02T01:07:04.403Z,89.30
2022-09-02T01:09:33.376Z,89.30
2022-09-02T01:12:02.952Z,88.90
2022-09-02T01:14:30.622Z,89.20
2022-09-02T01:17:00.375Z,89.50
2022-09-02T01:19:34.940Z,89.10
2022-09-02T01:22:02.489Z,89.00
2022-09-02T01:24:32.862Z,89.00
2022-09-02T01:27:00.297Z,89.30
2022-09-02T01:29:28.378Z,89.60
2022-09-02T01:31:55.723Z,89.60
2022-09-02T01:34:23.325Z,89.60
2022-09-02T01:36:50.441Z,89.70
2022-09-02T01:39:17.656Z,89.50
2022-09-02T01:41:45.082Z,89.80
2022-09-02T01:44:12.203Z,89.90
2022-09-02T01:46:39.955Z,89.90
2022-09-02T01:49:07.381Z,90.30
2022-09-02T01:51:34.624Z,90.50
2022-09-02T01:54:02.048Z,90.70
2022-09-02T01:56:28.899Z,91.10
2022-09-02T01:58:55.770Z,91.20
2022-09-02T02:01:22.533Z,91.40
2022-09-02T02:03:51.664Z,91.50
2022-09-02T02:06:21.541Z,91.30
2022-09-02T02:08:48.329Z,91.20
2022-09-02T02:11:24.650Z,90.80
2022-09-02T02:13:56.750Z,90.50
2022-09-02T02:16:24.070Z,90.40
2022-09-02T02:18:51.070Z,91.00
2022-09-02T02:21:17.803Z,91.00
2022-09-02T02:23:47.006Z,90.80
2022-09-02T02:26:13.722Z,90.90
2022-09-02T02:28:40.485Z,91.90
2022-09-02T02:31:07.549Z,92.20
2022-09-02T02:33:36.044Z,92.20
2022-09-02T02:36:05.464Z,92.40
2022-09-02T02:38:33.324Z,91.80
2022-09-02T02:41:01.905Z,90.70
2022-09-02T02:43:29.053Z,90.70
2022-09-02T02:45:55.794Z,90.30
2022-09-02T02:48:23.044Z,90.30
2022-09-02T02:50:50.146Z,90.60
2022-09-02T02:53:17.491Z,90.70
2022-09-02T02:55:45.058Z,91.10
2022-09-02T02:58:17.238Z,91.00
2022-09-02T03:00:46.162Z,91.00
2022-09-02T03:03:14.875Z,91.20
2022-09-02T03:05:41.564Z,90.70
2022-09-02T03:08:11.029Z,90.90
2022-09-02T03:10:41.016Z,90.80
2022-09-02T03:13:09.962Z,90.70
2022-09-02T03:15:39.361Z,90.30
2022-09-02T03:18:06.598Z,90.20
2022-09-02T03:20:33.934Z,90.00
2022-09-02T03:23:04.754Z,90.10
2022-09-02T03:25:35.954Z,90.20
2022-09-02T03:28:08.743Z,90.20
2022-09-02T03:30:36.581Z,90.10
2022-09-02T03:33:05.857Z,89.80
2022-09-02T03:35:40.145Z,89.60
2022-09-02T03:38:07.730Z,89.40
2022-09-02T03:40:35.440Z,89.30
2022-09-02T03:43:02.686Z,89.50
2022-09-02T03:45:31.113Z,89.40
2022-09-02T03:48:02.362Z,89.30
2022-09-02T03:50:36.373Z,88.80
2022-09-02T03:53:04.278Z,88.90
2022-09-02T03:55:31.750Z,88.90
2022-09-02T03:57:58.504Z,89.30
2022-09-02T04:00:29.812Z,89.60
2022-09-02T04:02:58.500Z,89.90
2022-09-02T04:05:25.251Z,89.90
2022-09-02T04:07:55.172Z,90.00
2022-09-02T04:10:23.944Z,89.90
2022-09-02T04:12:51.739Z,89.80
2022-09-02T04:15:19.816Z,89.70
2022-09-02T04:17:48.488Z,90.10
2022-09-02T04:20:17.997Z,89.90
2022-09-02T04:22:45.010Z,90.10
2022-09-02T04:25:12.666Z,90.20
2022-09-02T04:27:39.441Z,90.10
2022-09-02T04:30:08.920Z,89.60
2022-09-02T04:32:40.929Z,89.60
2022-09-02T04:35:09.266Z,89.90
2022-09-02T04:37:37.031Z,90.10
2022-09-02T04:40:04.835Z,90.00
2022-09-02T04:42:31.865Z,90.20
2022-09-02T04:44:59.307Z,90.00
2022-09-02T04:47:27.757Z,90.10
2022-09-02T04:49:55.524Z,90.20
2022-09-02T04:52:22.914Z,90.20
2022-09-02T04:54:50.530Z,90.10
2022-09-02T04:57:17.711Z,89.90
2022-09-02T04:59:44.977Z,89.50
2022-09-02T05:02:12.141Z,89.70
2022-09-02T05:04:39.959Z,90.00
2022-09-02T05:07:13.329Z,90.40
2022-09-02T05:09:44.653Z,90.30
2022-09-02T05:12:11.573Z,90.60
2022-09-02T05:14:44.045Z,90.80
2022-09-02T05:17:11.160Z,90.60
2022-09-02T05:19:41.845Z,90.60
2022-09-02T05:22:08.942Z,90.80
2022-09-02T05:24:38.932Z,90.90
2022-09-02T05:27:09.762Z,90.50
2022-09-02T05:29:36.905Z,90.20
2022-09-02T05:32:04.308Z,90.00
2022-09-02T05:34:33.361Z,90.20
2022-09-02T05:37:03.300Z,89.90
2022-09-02T05:39:31.769Z,90.30
2022-09-02T05:41:59.767Z,90.00
2022-09-02T05:44:27.206Z,90.10
2022-09-02T05:46:55.176Z,90.50
2022-09-02T05:49:23.397Z,90.80
2022-09-02T05:52:01.709Z,90.20
2022-09-02T05:54:35.483Z,90.50
2022-09-02T05:57:10.266Z,90.50
2022-09-02T05:59:42.310Z,90.30
2022-09-02T06:02:13.670Z,90.40
2022-09-02T06:04:43.347Z,90.80
2022-09-02T06:07:13.770Z,90.40
2022-09-02T06:09:44.753Z,90.00
2022-09-02T06:12:13.184Z,89.20
2022-09-02T06:14:41.441Z,89.50
2022-09-02T06:17:09.161Z,89.60
2022-09-02T06:19:42.021Z,89.40
2022-09-02T06:22:11.412Z,88.50
2022-09-02T06:24:39.117Z,88.50
2022-09-02T06:27:10.581Z,88.40
2022-09-02T06:29:39.901Z,88.10
2022-09-02T06:32:09.182Z,87.90
2022-09-02T06:34:37.053Z,87.90
2022-09-02T06:37:03.956Z,87.40
2022-09-02T06:39:32.807Z,87.30
2022-09-02T06:42:00.136Z,86.90
2022-09-02T06:44:29.590Z,86.50
2022-09-02T06:47:00.825Z,86.20
2022-09-02T06:49:28.705Z,85.90
2022-09-02T06:51:57.753Z,85.30
2022-09-02T06:54:29.934Z,84.80
2022-09-02T06:57:11.228Z,85.10
2022-09-02T06:59:38.621Z,85.10
2022-09-02T07:02:05.688Z,85.60
2022-09-02T07:04:53.231Z,85.40
2022-09-02T07:07:22.782Z,84.90
2022-09-02T07:10:02.398Z,85.40
2022-09-02T07:12:29.195Z,85.00
2022-09-02T07:15:00.945Z,84.80
2022-09-02T07:17:32.745Z,85.30
2022-09-02T07:20:06.355Z,84.90
2022-09-02T07:22:39.423Z,84.70
2022-09-02T07:25:09.268Z,84.50
2022-09-02T07:27:37.220Z,84.40
2022-09-02T07:30:06.650Z,84.10
2022-09-02T07:32:36.855Z,83.50
2022-09-02T07:35:06.287Z,83.30
2022-09-02T07:37:36.945Z,83.20
2022-09-02T07:40:07.660Z,82.50
2022-09-02T07:42:34.809Z,82.20
2022-09-02T07:45:01.657Z,81.60
2022-09-02T07:47:28.743Z,81.70
2022-09-02T07:52:42.875Z,81.80
2022-09-02T07:55:14.734Z,81.80
2022-09-02T07:57:42.797Z,81.20
2022-09-02T08:00:12.167Z,80.70
2022-09-02T08:02:41.217Z,80.70
2022-09-02T08:05:10.320Z,80.90
2022-09-02T08:07:37.197Z,80.80
2022-09-02T08:10:07.229Z,80.50
2022-09-02T08:12:33.947Z,80.30
2022-09-02T08:15:00.727Z,80.50
2022-09-02T08:17:27.541Z,79.80
2022-09-02T08:19:54.380Z,79.70
2022-09-02T08:22:21.079Z,79.50
2022-09-02T08:24:47.810Z,79.00
2022-09-02T08:27:14.811Z,78.70
2022-09-02T08:29:41.659Z,78.20
2022-09-02T08:32:08.469Z,78.10
2022-09-02T08:34:35.213Z,77.40
2022-09-02T08:37:01.926Z,77.50
2022-09-02T08:39:28.596Z,77.70
2022-09-02T08:42:37.357Z,77.50
2022-09-02T08:45:22.902Z,76.90
2022-09-02T08:48:01.344Z,76.20
2022-09-02T08:50:30.618Z,76.30
2022-09-02T08:53:18.109Z,75.40
2022-09-02T08:55:50.722Z,74.80
2022-09-02T08:58:20.885Z,74.60
2022-09-02T09:00:59.754Z,73.90
2022-09-02T09:03:38.301Z,74.50
2022-09-02T09:06:24.296Z,74.10
2022-09-02T09:09:19.234Z,73.80
2022-09-02T09:12:21.986Z,73.00
2022-09-02T09:15:05.226Z,73.70
2022-09-02T09:17:44.568Z,72.70
2022-09-02T09:20:24.294Z,72.20
2022-09-02T09:22:58.352Z,72.10
2022-09-02T09:25:29.677Z,71.80
2022-09-02T09:27:58.183Z,71.60
2022-09-02T09:30:25.436Z,71.80
2022-09-02T09:32:54.818Z,72.10
2022-09-02T09:35:22.287Z,70.90
2022-09-02T09:37:51.256Z,70.50
2022-09-02T09:40:23.613Z,70.30
2022-09-02T09:42:56.135Z,69.50
2022-09-02T09:45:37.865Z,69.10
2022-09-02T09:48:17.517Z,69.10
2022-09-02T09:50:57.230Z,68.40
2022-09-02T09:53:32.216Z,69.10
2022-09-02T09:56:05.142Z,68.20
2022-09-02T09:58:41.176Z,68.40
2022-09-02T10:01:34.489Z,68.40
2022-09-02T10:04:02.841Z,67.10
2022-09-02T10:06:32.221Z,66.60
2022-09-02T10:09:00.705Z,66.70
2022-09-02T10:11:33.530Z,66.20
2022-09-02T10:14:03.017Z,65.00
2022-09-02T10:17:04.833Z,65.30
2022-09-02T10:19:47.625Z,64.60
2022-09-02T10:22:22.470Z,64.50
2022-09-02T10:25:32.702Z,64.40
2022-09-02T10:28:37.327Z,64.00
2022-09-02T10:31:32.154Z,63.40
2022-09-02T10:34:04.879Z,63.10
2022-09-02T10:36:39.969Z,63.00
2022-09-02T10:39:39.346Z,63.20
2022-09-02T10:42:19.921Z,63.90
2022-09-02T10:45:21.978Z,64.10
2022-09-02T10:48:23.864Z,62.40
2022-09-02T10:51:10.005Z,62.10
2022-09-02T10:54:09.978Z,62.70
2022-09-02T10:56:51.267Z,63.20
2022-09-02T10:59:23.187Z,62.10
2022-09-02T11:02:00.303Z,63.30
2022-09-02T11:04:59.420Z,62.20
2022-09-02T11:07:38.890Z,62.70
2022-09-02T11:10:41.280Z,61.90
2022-09-02T11:13:21.699Z,61.10
2022-09-02T11:16:15.905Z,61.50
2022-09-02T11:19:00.260Z,60.60
2022-09-02T11:21:35.912Z,60.30
2022-09-02T11:24:16.503Z,60.30
2022-09-02T11:26:58.069Z,60.90
2022-09-02T11:29:46.322Z,59.70
2022-09-02T11:32:23.840Z,59.30
2022-09-02T11:34:57.650Z,60.20
2022-09-02T11:37:43.472Z,59.20
2022-09-02T11:40:37.286Z,59.30
2022-09-02T11:43:24.012Z,58.80
2022-09-02T11:46:27.803Z,59.40
2022-09-02T11:49:22.120Z,58.70
2022-09-02T11:52:06.263Z,59.50
2022-09-02T11:54:43.038Z,60.40
2022-09-02T11:57:19.814Z,59.30
2022-09-02T11:59:51.964Z,58.50
2022-09-02T12:02:30.758Z,60.00
2022-09-02T12:05:35.134Z,58.30
2022-09-02T12:08:15.252Z,59.10
2022-09-02T12:10:48.357Z,57.70
2022-09-02T12:13:45.487Z,57.80
2022-09-02T12:16:15.514Z,57.90
2022-09-02T12:19:10.655Z,58.20
2022-09-02T12:22:15.666Z,57.30
2022-09-02T12:24:56.891Z,57.90
2022-09-02T12:27:36.862Z,56.90
2022-09-02T12:30:07.677Z,56.70
2022-09-02T12:32:46.504Z,56.10
2022-09-02T12:35:34.855Z,57.80
2022-09-02T12:38:11.874Z,56.40
2022-09-02T12:40:55.650Z,57.40
2022-09-02T12:44:14.125Z,56.40
2022-09-02T12:46:43.794Z,57.60
2022-09-02T12:49:33.492Z,57.00
2022-09-02T12:52:02.561Z,57.30
2022-09-02T12:54:48.913Z,57.50
2022-09-02T12:57:19.484Z,56.90
2022-09-02T12:59:47.710Z,56.70
2022-09-02T13:02:44.369Z,57.00
2022-09-02T13:05:21.986Z,57.20
2022-09-02T13:08:14.032Z,56.90
2022-09-02T13:11:08.587Z,56.10
2022-09-02T13:14:06.029Z,55.70
2022-09-02T13:17:08.935Z,57.20
2022-09-02T13:19:48.960Z,56.00
2022-09-02T13:22:37.617Z,56.90
2022-09-02T13:25:28.974Z,57.00
2022-09-02T13:28:05.514Z,56.00
2022-09-02T13:30:56.561Z,55.50
2022-09-02T13:33:23.452Z,55.80
2022-09-02T13:35:55.990Z,55.50
2022-09-02T13:38:28.441Z,55.60
2022-09-02T13:40:55.504Z,55.60
2022-09-02T13:43:26.182Z,56.50
2022-09-02T13:45:59.398Z,56.10
2022-09-02T13:48:33.294Z,55.40
2022-09-02T13:51:11.510Z,55.90
2022-09-02T13:53:53.894Z,57.70
2022-09-02T13:56:31.765Z,56.80
2022-09-02T13:58:58.553Z,55.30
2022-09-02T14:01:36.957Z,57.00
2022-09-02T14:04:10.246Z,56.00
2022-09-02T14:06:44.217Z,56.10
2022-09-02T14:09:20.262Z,55.80
2022-09-02T14:11:48.480Z,56.10
2022-09-02T14:14:17.727Z,55.10
2022-09-02T14:16:44.469Z,56.80
2022-09-02T14:19:17.004Z,56.30
2022-09-02T14:21:56.532Z,55.70
2022-09-02T14:24:25.925Z,56.90
2022-09-02T14:26:55.423Z,56.40
2022-09-02T14:29:23.838Z,55.40
2022-09-02T14:32:24.307Z,55.70
2022-09-02T14:35:22.278Z,55.70
2022-09-02T14:37:57.641Z,55.80
2022-09-02T14:40:40.553Z,56.50
2022-09-02T14:43:15.589Z,56.40
2022-09-02T14:45:50.060Z,56.30
2022-09-02T14:48:23.601Z,57.40
2022-09-02T14:51:02.263Z,58.20
2022-09-02T14:53:29.816Z,55.90
2022-09-02T14:55:57.315Z,55.70
2022-09-02T14:58:27.513Z,56.60
2022-09-02T15:01:01.743Z,55.80
2022-09-02T15:03:36.486Z,56.10
2022-09-02T15:06:03.383Z,55.90
2022-09-02T15:08:30.155Z,56.50
2022-09-02T15:10:59.682Z,55.90
2022-09-02T15:13:32.412Z,56.70
2022-09-02T15:15:59.541Z,57.40
2022-09-02T15:18:26.554Z,56.70
2022-09-02T15:20:54.199Z,56.70
2022-09-02T15:23:21.857Z,57.20
2022-09-02T15:25:48.659Z,56.80
2022-09-02T15:28:15.440Z,56.90
2022-09-02T15:30:42.417Z,57.30
2022-09-02T15:33:16.586Z,56.70
2022-09-02T15:35:47.287Z,56.40
2022-09-02T15:38:14.022Z,57.60
2022-09-02T15:40:40.889Z,56.90
2022-09-02T15:43:07.586Z,56.90
2022-09-02T15:45:35.142Z,57.00
2022-09-02T15:48:02.041Z,57.80
2022-09-02T15:50:31.640Z,56.90
2022-09-02T15:52:58.464Z,56.90
2022-09-02T15:55:29.145Z,56.60
2022-09-02T15:57:56.856Z,57.30
2022-09-02T16:00:27.790Z,57.70
2022-09-02T16:02:57.043Z,57.30
2022-09-02T16:05:24.155Z,56.90
2022-09-02T16:07:52.067Z,57.50
2022-09-02T16:10:18.795Z,57.50
2022-09-02T16:12:45.725Z,57.70
2022-09-02T16:15:12.391Z,57.70
2022-09-02T16:17:39.065Z,58.00
2022-09-02T16:20:06.229Z,57.90
2022-09-02T16:22:33.258Z,58.40
2022-09-02T16:25:01.765Z,58.00
2022-09-02T16:27:47.134Z,58.60
2022-09-02T16:30:13.885Z,58.10
2022-09-02T16:32:40.758Z,58.00
2022-09-02T16:35:08.481Z,58.10
2022-09-02T16:37:35.709Z,58.70
2022-09-02T16:40:03.361Z,58.40
2022-09-02T16:42:30.824Z,58.10
2022-09-02T16:44:59.610Z,58.50
2022-09-02T16:47:26.977Z,58.60
2022-09-02T16:49:53.694Z,59.30
2022-09-02T16:52:20.388Z,58.70
2022-09-02T16:54:47.386Z,59.40
2022-09-02T16:57:14.231Z,59.70
2022-09-02T16:59:40.964Z,59.40
2022-09-02T17:02:07.765Z,59.40
2022-09-02T17:04:34.844Z,61.20
2022-09-02T17:07:01.553Z,60.30
2022-09-02T17:09:28.254Z,59.90
2022-09-02T17:11:54.925Z,61.20
2022-09-02T17:14:21.801Z,60.20
2022-09-02T17:16:50.444Z,60.50
2022-09-02T17:19:22.361Z,61.00
2022-09-02T17:21:54.336Z,61.90
2022-09-02T17:24:24.154Z,62.20
2022-09-02T17:26:54.235Z,62.40
2022-09-02T17:32:09.534Z,63.30
2022-09-02T17:34:36.830Z,63.80
2022-09-02T17:37:04.487Z,63.80
2022-09-02T17:39:31.285Z,64.20
2022-09-02T17:41:58.061Z,64.10
2022-09-02T17:44:34.890Z,64.40
2022-09-02T17:47:20.116Z,64.40
2022-09-02T17:49:48.263Z,64.80
2022-09-02T17:52:20.951Z,64.70
2022-09-02T17:54:52.860Z,64.30
2022-09-02T17:57:30.747Z,64.70
2022-09-02T18:00:01.325Z,64.90
2022-09-02T18:02:40.616Z,65.80
2022-09-02T18:05:19.951Z,66.60
2022-09-02T18:08:08.725Z,66.90
2022-09-02T18:10:41.610Z,67.30
2022-09-02T18:13:13.756Z,67.30
2022-09-02T18:16:23.555Z,67.80
2022-09-02T18:18:56.211Z,67.40
2022-09-02T18:21:50.576Z,68.40
2022-09-02T18:24:50.858Z,68.40
2022-09-02T18:27:39.336Z,68.30
2022-09-02T18:30:16.949Z,68.20
2022-09-02T18:32:59.497Z,67.80
2022-09-02T18:35:55.613Z,67.30
2022-09-02T18:38:30.151Z,67.90
2022-09-02T18:41:15.582Z,67.70
2022-09-02T18:44:10.111Z,68.20
2022-09-02T18:46:59.273Z,70.20
2022-09-02T18:49:27.973Z,71.30
2022-09-02T18:51:59.185Z,71.40
2022-09-02T18:54:30.944Z,71.20
2022-09-02T18:57:05.323Z,70.30
2022-09-02T18:59:40.636Z,70.10
2022-09-02T19:02:20.350Z,69.40
2022-09-02T19:04:47.123Z,69.10
2022-09-02T19:07:32.754Z,69.10
2022-09-02T19:10:01.034Z,69.00
2022-09-02T19:12:32.787Z,69.00
2022-09-02T19:15:00.653Z,69.20
2022-09-02T19:17:27.425Z,69.00
2022-09-02T19:19:54.141Z,70.50
2022-09-02T19:22:28.248Z,71.20
2022-09-02T19:25:01.292Z,71.80
2022-09-02T19:27:32.860Z,72.30
2022-09-02T19:30:05.474Z,72.40
2022-09-02T19:32:35.541Z,72.40
2022-09-02T19:35:08.448Z,72.00
2022-09-02T19:37:43.236Z,71.70
2022-09-02T19:40:12.126Z,71.80
2022-09-02T19:42:38.912Z,71.90
2022-09-02T19:45:05.960Z,71.90
2022-09-02T19:50:21.227Z,72.30
2022-09-02T19:52:49.351Z,72.30
2022-09-02T19:55:17.377Z,72.50
2022-09-02T19:57:45.027Z,73.00
2022-09-02T20:00:13.416Z,73.00
2022-09-02T20:02:40.349Z,73.10
2022-09-02T20:05:12.075Z,73.10
2022-09-02T20:07:39.616Z,73.20
2022-09-02T20:10:07.421Z,73.20
2022-09-02T20:12:35.778Z,73.40
2022-09-02T20:15:04.534Z,73.30
2022-09-02T20:17:32.014Z,73.50
2022-09-02T20:20:02.648Z,73.70
2022-09-02T20:22:30.904Z,73.70
2022-09-02T20:24:58.318Z,73.40
2022-09-02T20:27:37.177Z,73.30
2022-09-02T20:30:09.169Z,73.80
2022-09-02T20:33:00.489Z,73.80
2022-09-02T20:35:43.977Z,74.00
2022-09-02T20:38:40.432Z,74.00
2022-09-02T20:41:36.822Z,73.60
2022-09-02T20:44:34.664Z,73.30
2022-09-02T20:47:10.585Z,73.30
2022-09-02T20:50:12.272Z,73.00
2022-09-02T20:53:14.270Z,73.00
2022-09-02T20:55:54.771Z,73.00
2022-09-02T20:58:44.474Z,72.40
2022-09-02T21:01:34.010Z,72.40
2022-09-02T21:04:12.655Z,72.40
2022-09-02T21:06:45.666Z,72.60
2022-09-02T21:09:23.849Z,72.80
2022-09-02T21:12:02.754Z,72.70
2022-09-02T21:14:39.254Z,72.40
2022-09-02T21:17:12.605Z,72.70
2022-09-02T21:19:51.926Z,72.20
2022-09-02T21:22:28.654Z,72.10
2022-09-02T21:25:21.580Z,72.40
2022-09-02T21:27:59.632Z,72.00
2022-09-02T21:30:28.219Z,72.00
2022-09-02T21:33:03.325Z,72.00
2022-09-02T21:35:40.665Z,72.20
2022-09-02T21:38:23.503Z,72.20
2022-09-02T21:40:50.229Z,72.10
2022-09-02T21:43:34.887Z,72.00
2022-09-02T21:46:27.379Z,72.30
2022-09-02T21:49:23.593Z,71.50
2022-09-02T21:52:22.158Z,71.70
2022-09-02T21:55:00.752Z,71.60
2022-09-02T21:57:53.841Z,72.10
2022-09-02T22:00:22.939Z,71.90
2022-09-02T22:03:13.033Z,71.80
2022-09-02T22:05:54.673Z,72.20
2022-09-02T22:08:33.880Z,72.30
2022-09-02T22:11:00.932Z,72.00
2022-09-02T22:13:30.749Z,72.20
2022-09-02T22:16:35.523Z,72.20
2022-09-02T22:19:08.573Z,72.10
2022-09-02T22:21:55.019Z,72.50
2022-09-02T22:24:29.044Z,72.50
2022-09-02T22:27:17.794Z,72.60
2022-09-02T22:29:54.921Z,72.60
2022-09-02T22:32:24.991Z,72.10
2022-09-02T22:35:04.603Z,72.00
2022-09-02T22:37:46.829Z,72.30
2022-09-02T22:40:17.479Z,72.70
2022-09-02T22:42:48.594Z,72.60
2022-09-02T22:45:50.928Z,72.50
2022-09-02T22:48:52.706Z,72.60
2022-09-02T22:51:54.846Z,72.30
2022-09-02T22:54:21.838Z,72.40
2022-09-02T22:57:07.462Z,72.40
2022-09-02T23:00:01.988Z,72.40
2022-09-02T23:02:36.998Z,72.30
2022-09-02T23:05:51.915Z,72.40
2022-09-02T23:08:20.926Z,72.30
2022-09-02T23:11:11.442Z,72.80
2022-09-02T23:14:08.954Z,73.30
2022-09-02T23:16:53.407Z,72.70
2022-09-02T23:19:34.776Z,72.80
2022-09-02T23:22:31.827Z,72.80
2022-09-02T23:25:23.015Z,73.00
2022-09-02T23:28:05.805Z,73.10
2022-09-02T23:30:32.532Z,73.40
2022-09-02T23:33:18.214Z,73.40
2022-09-02T23:36:00.565Z,73.30
2022-09-02T23:38:47.007Z,72.80
2022-09-02T23:41:14.187Z,73.00
2022-09-02T23:43:42.772Z,72.90
2022-09-02T23:46:09.423Z,73.20
2022-09-02T23:49:06.596Z,73.20
2022-09-02T23:51:42.658Z,73.70
2022-09-02T23:54:18.334Z,73.70
2022-09-02T23:57:09.760Z,74.40
2022-09-02T23:59:57.519Z,74.40
